sensor_id;sensor_type;location;lat;lon;timestamp;pressure;altitude;pressure_sealevel;temperature;humidity
48555;BME280;34336;48.270;16.716;2022-08-19T00:02:01;74353.69;;;18.16;53.07
48555;BME280;34336;48.270;16.716;2022-08-19T00:04:34;74355.63;;;18.16;52.93
48555;BME280;34336;48.270;16.716;2022-08-19T00:07:07;74351.78;;;18.16;52.90
48555;BME280;34336;48.270;16.716;2022-08-19T00:09:34;74349.84;;;18.16;53.62
48555;BME280;34336;48.270;16.716;2022-08-19T00:12:01;74351.78;;;18.16;53.74
48555;BME280;34336;48.270;16.716;2022-08-19T00:14:30;74353.69;;;18.16;53.41
48555;BME280;34336;48.270;16.716;2022-08-19T00:16:58;74369.09;;;18.16;53.52
48555;BME280;34336;48.270;16.716;2022-08-19T00:19:25;74372.94;;;18.16;53.65
48555;BME280;34336;48.270;16.716;2022-08-19T00:21:52;74386.44;;;18.16;53.66
48555;BME280;34336;48.270;16.716;2022-08-19T00:24:19;74398.00;;;18.16;53.95
48555;BME280;34336;48.270;16.716;2022-08-19T00:26:46;74392.22;;;18.16;53.81
48555;BME280;34336;48.270;16.716;2022-08-19T00:29:15;74403.78;;;18.16;53.83
48555;BME280;34336;48.270;16.716;2022-08-19T00:31:43;74405.69;;;18.16;54.56
48555;BME280;34336;48.270;16.716;2022-08-19T00:34:12;74403.78;;;18.16;54.90
48555;BME280;34336;48.270;16.716;2022-08-19T00:36:40;74401.84;;;18.16;54.70
48555;BME280;34336;48.270;16.716;2022-08-19T00:39:08;74401.84;;;18.16;54.57
48555;BME280;34336;48.270;16.716;2022-08-19T00:41:35;74405.69;;;18.16;54.64
48555;BME280;34336;48.270;16.716;2022-08-19T00:46:41;74424.94;;;18.16;55.00
48555;BME280;34336;48.270;16.716;2022-08-19T00:51:48;74415.31;;;18.16;55.12
48555;BME280;34336;48.270;16.716;2022-08-19T00:54:17;74415.31;;;18.16;55.12
48555;BME280;34336;48.270;16.716;2022-08-19T00:56:55;74413.41;;;18.16;55.50
48555;BME280;34336;48.270;16.716;2022-08-19T00:59:22;74419.16;;;18.16;56.08
48555;BME280;34336;48.270;16.716;2022-08-19T01:02:09;74426.88;;;18.16;56.21
48555;BME280;34336;48.270;16.716;2022-08-19T01:04:36;74421.09;;;18.16;56.57
48555;BME280;34336;48.270;16.716;2022-08-19T01:07:03;74426.88;;;18.16;56.55
48555;BME280;34336;48.270;16.716;2022-08-19T01:09:30;74421.09;;;18.16;56.58
48555;BME280;34336;48.270;16.716;2022-08-19T01:11:57;74428.81;;;18.16;56.30
48555;BME280;34336;48.270;16.716;2022-08-19T01:14:24;74424.94;;;18.16;56.08
48555;BME280;34336;48.270;16.716;2022-08-19T01:16:53;74417.25;;;18.16;56.10
48555;BME280;34336;48.270;16.716;2022-08-19T01:19:27;74417.25;;;18.16;55.95
48555;BME280;34336;48.270;16.716;2022-08-19T01:22:07;74424.94;;;18.16;55.82
48555;BME280;34336;48.270;16.716;2022-08-19T01:24:40;74428.81;;;18.16;55.72
48555;BME280;34336;48.270;16.716;2022-08-19T01:27:16;74440.34;;;18.16;56.46
48555;BME280;34336;48.270;16.716;2022-08-19T01:29:44;74440.34;;;18.16;56.32
48555;BME280;34336;48.270;16.716;2022-08-19T01:32:15;74442.28;;;18.16;55.77
48555;BME280;34336;48.270;16.716;2022-08-19T01:35:00;74436.50;;;18.16;55.23
48555;BME280;34336;48.270;16.716;2022-08-19T01:37:28;74432.66;;;18.16;54.66
48555;BME280;34336;48.270;16.716;2022-08-19T01:39:57;74428.81;;;18.16;54.65
48555;BME280;34336;48.270;16.716;2022-08-19T01:42:24;74438.44;;;18.16;54.92
48555;BME280;34336;48.270;16.716;2022-08-19T01:44:56;74440.34;;;18.16;54.84
48555;BME280;34336;48.270;16.716;2022-08-19T01:47:23;74448.06;;;18.16;54.76
48555;BME280;34336;48.270;16.716;2022-08-19T01:49:50;74448.06;;;18.16;55.22
48555;BME280;34336;48.270;16.716;2022-08-19T01:52:17;74455.75;;;18.16;54.83
48555;BME280;34336;48.270;16.716;2022-08-19T01:54:44;74475.03;;;18.16;55.50
48555;BME280;34336;48.270;16.716;2022-08-19T01:57:12;74482.72;;;18.16;56.11
48555;BME280;34336;48.270;16.716;2022-08-19T01:59:41;74494.28;;;18.16;56.22
48555;BME280;34336;48.270;16.716;2022-08-19T02:02:09;74503.91;;;18.16;57.09
48555;BME280;34336;48.270;16.716;2022-08-19T02:04:36;74498.13;;;18.16;57.43
48555;BME280;34336;48.270;16.716;2022-08-19T02:07:07;74507.75;;;18.16;57.25
48555;BME280;34336;48.270;16.716;2022-08-19T02:09:35;74511.63;;;18.16;57.67
48555;BME280;34336;48.270;16.716;2022-08-19T02:12:03;74517.38;;;18.16;57.57
48555;BME280;34336;48.270;16.716;2022-08-19T02:14:30;74525.09;;;18.16;57.44
48555;BME280;34336;48.270;16.716;2022-08-19T02:16:57;74542.44;;;18.16;57.32
48555;BME280;34336;48.270;16.716;2022-08-19T02:19:23;74555.91;;;18.16;57.39
48555;BME280;34336;48.270;16.716;2022-08-19T02:21:50;74567.47;;;18.16;56.90
48555;BME280;34336;48.270;16.716;2022-08-19T02:24:17;74559.75;;;18.16;57.18
48555;BME280;34336;48.270;16.716;2022-08-19T02:26:44;74555.91;;;18.16;57.19
48555;BME280;34336;48.270;16.716;2022-08-19T02:29:11;74550.13;;;18.16;57.17
48555;BME280;34336;48.270;16.716;2022-08-19T02:31:37;74550.13;;;18.16;56.83
48555;BME280;34336;48.270;16.716;2022-08-19T02:34:04;74561.69;;;18.16;57.02
48555;BME280;34336;48.270;16.716;2022-08-19T02:36:31;74553.97;;;18.16;56.94
48555;BME280;34336;48.270;16.716;2022-08-19T02:38:58;74548.22;;;18.16;57.07
48555;BME280;34336;48.270;16.716;2022-08-19T02:41:28;74546.28;;;18.16;57.38
48555;BME280;34336;48.270;16.716;2022-08-19T02:43:55;74552.06;;;18.16;57.82
48555;BME280;34336;48.270;16.716;2022-08-19T02:46:46;74552.06;;;18.16;58.01
48555;BME280;34336;48.270;16.716;2022-08-19T02:49:13;74563.63;;;18.16;57.89
48555;BME280;34336;48.270;16.716;2022-08-19T02:51:44;74563.63;;;18.16;58.07
48555;BME280;34336;48.270;16.716;2022-08-19T02:54:13;74563.63;;;18.16;58.26
48555;BME280;34336;48.270;16.716;2022-08-19T02:56:42;74565.53;;;18.16;58.80
48555;BME280;34336;48.270;16.716;2022-08-19T02:59:09;74575.16;;;18.16;59.33
48555;BME280;34336;48.270;16.716;2022-08-19T03:01:39;74586.72;;;18.16;59.94
48555;BME280;34336;48.270;16.716;2022-08-19T03:04:08;74594.44;;;18.16;60.05
48555;BME280;34336;48.270;16.716;2022-08-19T03:06:39;74598.28;;;18.16;60.82
48555;BME280;34336;48.270;16.716;2022-08-19T03:09:07;74596.34;;;18.16;61.03
48555;BME280;34336;48.270;16.716;2022-08-19T03:11:34;74594.44;;;18.16;61.00
48555;BME280;34336;48.270;16.716;2022-08-19T03:14:03;74594.44;;;18.16;60.87
48555;BME280;34336;48.270;16.716;2022-08-19T03:16:32;74575.16;;;18.16;60.34
48555;BME280;34336;48.270;16.716;2022-08-19T03:19:00;74571.31;;;18.16;60.21
48555;BME280;34336;48.270;16.716;2022-08-19T03:21:30;74559.75;;;18.16;60.42
48555;BME280;34336;48.270;16.716;2022-08-19T03:24:01;74561.69;;;18.16;60.31
48555;BME280;34336;48.270;16.716;2022-08-19T03:26:29;74559.75;;;18.16;60.26
48555;BME280;34336;48.270;16.716;2022-08-19T03:28:56;74555.91;;;18.16;60.28
48555;BME280;34336;48.270;16.716;2022-08-19T03:31:26;74567.47;;;18.16;59.89
48555;BME280;34336;48.270;16.716;2022-08-19T03:34:12;74571.31;;;18.16;60.02
48555;BME280;34336;48.270;16.716;2022-08-19T03:36:40;74590.56;;;18.16;60.10
48555;BME280;34336;48.270;16.716;2022-08-19T03:39:07;74607.91;;;18.16;60.60
48555;BME280;34336;48.270;16.716;2022-08-19T03:41:40;74613.69;;;18.16;61.02
48555;BME280;34336;48.270;16.716;2022-08-19T03:44:13;74625.25;;;18.16;61.47
48555;BME280;34336;48.270;16.716;2022-08-19T03:46:44;74632.94;;;18.16;61.73
48555;BME280;34336;48.270;16.716;2022-08-19T03:49:12;74640.66;;;18.16;61.65
48555;BME280;34336;48.270;16.716;2022-08-19T03:51:41;74640.66;;;18.16;61.36
48555;BME280;34336;48.270;16.716;2022-08-19T03:54:10;74632.94;;;18.16;61.52
48555;BME280;34336;48.270;16.716;2022-08-19T03:56:38;74634.88;;;18.16;61.76
48555;BME280;34336;48.270;16.716;2022-08-19T03:59:10;74636.81;;;18.16;61.95
48555;BME280;34336;48.270;16.716;2022-08-19T04:01:37;74625.25;;;18.16;61.60
48555;BME280;34336;48.270;16.716;2022-08-19T04:04:04;74594.44;;;18.16;61.76
48555;BME280;34336;48.270;16.716;2022-08-19T04:06:35;74557.84;;;18.16;61.90
48555;BME280;34336;48.270;16.716;2022-08-19T04:09:07;74509.69;;;18.16;61.28
48555;BME280;34336;48.270;16.716;2022-08-19T04:11:39;74475.03;;;18.16;60.99
48555;BME280;34336;48.270;16.716;2022-08-19T04:14:13;74459.63;;;18.16;60.36
48555;BME280;34336;48.270;16.716;2022-08-19T04:16:41;74444.22;;;18.16;60.13
48555;BME280;34336;48.270;16.716;2022-08-19T04:19:09;74424.94;;;18.16;59.86
48555;BME280;34336;48.270;16.716;2022-08-19T04:21:36;74413.41;;;18.16;59.65
48555;BME280;34336;48.270;16.716;2022-08-19T04:24:03;74399.91;;;18.16;59.17
48555;BME280;34336;48.270;16.716;2022-08-19T04:26:34;74390.28;;;18.16;58.84
48555;BME280;34336;48.270;16.716;2022-08-19T04:29:06;74382.59;;;18.16;58.62
48555;BME280;34336;48.270;16.716;2022-08-19T04:31:39;74359.47;;;18.16;57.98
48555;BME280;34336;48.270;16.716;2022-08-19T04:34:08;74347.91;;;18.16;57.61
48555;BME280;34336;48.270;16.716;2022-08-19T04:36:39;74340.22;;;18.16;57.18
48555;BME280;34336;48.270;16.716;2022-08-19T04:39:10;74309.41;;;18.16;56.64
48555;BME280;34336;48.270;16.716;2022-08-19T04:41:37;74301.69;;;18.16;56.25
48555;BME280;34336;48.270;16.716;2022-08-19T04:44:23;74272.81;;;18.16;55.75
48555;BME280;34336;48.270;16.716;2022-08-19T04:46:50;74253.56;;;18.16;54.85
48555;BME280;34336;48.270;16.716;2022-08-19T04:49:22;74216.97;;;18.16;54.34
48555;BME280;34336;48.270;16.716;2022-08-19T04:51:50;74213.13;;;18.16;54.05
48555;BME280;34336;48.270;16.716;2022-08-19T04:54:18;74147.66;;;18.16;52.84
48555;BME280;34336;48.270;16.716;2022-08-19T04:57:05;74078.31;;;18.16;51.45
48555;BME280;34336;48.270;16.716;2022-08-19T04:59:34;74089.88;;;18.16;51.49
48555;BME280;34336;48.270;16.716;2022-08-19T05:02:01;74116.84;;;18.16;51.77
48555;BME280;34336;48.270;16.716;2022-08-19T05:04:28;74109.13;;;18.16;51.70
48555;BME280;34336;48.270;16.716;2022-08-19T05:06:57;74103.34;;;18.16;51.73
48555;BME280;34336;48.270;16.716;2022-08-19T05:09:27;74070.63;;;18.16;51.12
48555;BME280;34336;48.270;16.716;2022-08-19T05:12:14;74018.63;;;18.16;50.28
48555;BME280;34336;48.270;16.716;2022-08-19T05:14:42;73985.91;;;18.16;49.98
48555;BME280;34336;48.270;16.716;2022-08-19T05:17:09;73978.19;;;18.16;49.06
48555;BME280;34336;48.270;16.716;2022-08-19T05:19:54;73922.34;;;18.16;48.80
48555;BME280;34336;48.270;16.716;2022-08-19T05:22:40;73905.03;;;18.16;48.56
48555;BME280;34336;48.270;16.716;2022-08-19T05:25:11;73895.41;;;18.16;48.08
48555;BME280;34336;48.270;16.716;2022-08-19T05:27:40;73897.31;;;18.16;48.24
48555;BME280;34336;48.270;16.716;2022-08-19T05:30:08;73856.88;;;18.16;47.61
48555;BME280;34336;48.270;16.716;2022-08-19T05:32:35;73831.84;;;18.16;46.89
48555;BME280;34336;48.270;16.716;2022-08-19T05:35:03;73770.25;;;18.16;46.10
48555;BME280;34336;48.270;16.716;2022-08-19T05:37:30;73766.38;;;18.16;46.31
48555;BME280;34336;48.270;16.716;2022-08-19T05:39:57;73797.19;;;18.16;46.81
48555;BME280;34336;48.270;16.716;2022-08-19T05:42:23;73785.63;;;18.16;46.50
48555;BME280;34336;48.270;16.716;2022-08-19T05:44:51;73916.56;;;18.16;48.53
48555;BME280;34336;48.270;16.716;2022-08-19T05:47:18;73914.66;;;18.16;48.19
48555;BME280;34336;48.270;16.716;2022-08-19T05:49:47;73953.16;;;18.16;49.00
48555;BME280;34336;48.270;16.716;2022-08-19T05:52:15;73949.31;;;18.16;49.38
48555;BME280;34336;48.270;16.716;2022-08-19T05:54:46;73957.00;;;18.16;49.22
48555;BME280;34336;48.270;16.716;2022-08-19T05:57:18;73951.22;;;18.16;49.06
48555;BME280;34336;48.270;16.716;2022-08-19T05:59:45;73972.41;;;18.16;49.50
48555;BME280;34336;48.270;16.716;2022-08-19T06:02:18;73970.50;;;18.16;49.46
48555;BME280;34336;48.270;16.716;2022-08-19T06:04:46;73951.22;;;18.16;49.20
48555;BME280;34336;48.270;16.716;2022-08-19T06:07:30;73960.84;;;18.16;49.31
48555;BME280;34336;48.270;16.716;2022-08-19T06:10:55;74012.84;;;18.16;49.77
48555;BME280;34336;48.270;16.716;2022-08-19T06:13:22;74009.00;;;18.16;49.97
48555;BME280;34336;48.270;16.716;2022-08-19T06:15:50;73972.41;;;18.16;49.69
48555;BME280;34336;48.270;16.716;2022-08-19T06:18:17;73991.66;;;18.16;49.96
48555;BME280;34336;48.270;16.716;2022-08-19T06:20:43;74001.28;;;18.16;50.37
48555;BME280;34336;48.270;16.716;2022-08-19T06:23:21;73978.19;;;18.16;49.79
48555;BME280;34336;48.270;16.716;2022-08-19T06:25:49;73970.50;;;18.16;49.27
48555;BME280;34336;48.270;16.716;2022-08-19T06:28:16;73868.44;;;18.16;47.62
48555;BME280;34336;48.270;16.716;2022-08-19T06:30:43;73787.56;;;18.16;46.46
48555;BME280;34336;48.270;16.716;2022-08-19T06:33:10;73795.28;;;18.16;45.81
48555;BME280;34336;48.270;16.716;2022-08-19T06:35:39;73781.78;;;18.16;45.74
48555;BME280;34336;48.270;16.716;2022-08-19T06:38:06;73839.56;;;18.16;46.75
48555;BME280;34336;48.270;16.716;2022-08-19T06:40:33;73820.28;;;18.16;46.60
48555;BME280;34336;48.270;16.716;2022-08-19T06:43:00;73799.13;;;18.16;46.51
48555;BME280;34336;48.270;16.716;2022-08-19T06:45:31;73816.44;;;18.16;46.76
48555;BME280;34336;48.270;16.716;2022-08-19T06:48:02;73858.81;;;18.16;47.11
48555;BME280;34336;48.270;16.716;2022-08-19T06:50:29;73856.88;;;18.16;46.50
48555;BME280;34336;48.270;16.716;2022-08-19T06:52:56;73843.41;;;18.16;46.85
48555;BME280;34336;48.270;16.716;2022-08-19T06:55:26;73818.38;;;18.16;47.09
48555;BME280;34336;48.270;16.716;2022-08-19T06:58:02;73810.66;;;18.16;46.73
48555;BME280;34336;48.270;16.716;2022-08-19T07:00:30;73804.91;;;18.16;46.66
48555;BME280;34336;48.270;16.716;2022-08-19T07:03:02;73804.91;;;18.16;46.60
48555;BME280;34336;48.270;16.716;2022-08-19T07:05:37;73824.16;;;18.16;46.19
48555;BME280;34336;48.270;16.716;2022-08-19T07:08:05;73799.13;;;18.16;46.23
48555;BME280;34336;48.270;16.716;2022-08-19T07:10:32;73785.63;;;18.16;46.07
48555;BME280;34336;48.270;16.716;2022-08-19T07:13:00;73768.31;;;18.16;46.26
48555;BME280;34336;48.270;16.716;2022-08-19T07:15:27;73789.50;;;18.16;46.24
48555;BME280;34336;48.270;16.716;2022-08-19T07:17:54;73789.50;;;18.16;46.08
48555;BME280;34336;48.270;16.716;2022-08-19T07:20:21;73739.44;;;18.16;45.31
48555;BME280;34336;48.270;16.716;2022-08-19T07:22:54;73722.09;;;18.16;45.11
48555;BME280;34336;48.270;16.716;2022-08-19T07:25:21;73633.53;;;18.16;44.20
48555;BME280;34336;48.270;16.716;2022-08-19T07:27:58;73685.53;;;18.16;44.44
48555;BME280;34336;48.270;16.716;2022-08-19T07:30:27;73679.75;;;18.16;43.94
48555;BME280;34336;48.270;16.716;2022-08-19T07:32:54;73635.47;;;18.16;43.54
48555;BME280;34336;48.270;16.716;2022-08-19T07:35:21;73604.66;;;18.16;42.88
48555;BME280;34336;48.270;16.716;2022-08-19T07:37:48;73660.50;;;18.16;43.69
48555;BME280;34336;48.270;16.716;2022-08-19T07:40:15;73600.81;;;18.16;42.67
48555;BME280;34336;48.270;16.716;2022-08-19T07:42:42;73639.31;;;18.16;42.87
48555;BME280;34336;48.270;16.716;2022-08-19T07:45:09;73600.81;;;18.16;43.19
48555;BME280;34336;48.270;16.716;2022-08-19T07:47:36;73616.19;;;18.16;42.38
48555;BME280;34336;48.270;16.716;2022-08-19T07:50:17;73620.06;;;18.16;42.43
48555;BME280;34336;48.270;16.716;2022-08-19T07:52:47;73612.34;;;18.16;42.65
48555;BME280;34336;48.270;16.716;2022-08-19T07:55:19;73666.25;;;18.16;43.57
48555;BME280;34336;48.270;16.716;2022-08-19T07:58:07;73687.44;;;18.16;43.83
48555;BME280;34336;48.270;16.716;2022-08-19T08:00:34;73637.38;;;18.16;42.74
48555;BME280;34336;48.270;16.716;2022-08-19T08:03:02;73639.31;;;18.16;42.93
48555;BME280;34336;48.270;16.716;2022-08-19T08:05:29;73579.63;;;18.16;41.77
48555;BME280;34336;48.270;16.716;2022-08-19T08:08:14;73516.09;;;18.16;41.59
48555;BME280;34336;48.270;16.716;2022-08-19T08:11:00;73479.50;;;18.16;41.24
48555;BME280;34336;48.270;16.716;2022-08-19T08:13:27;73423.69;;;18.16;39.38
48555;BME280;34336;48.270;16.716;2022-08-19T08:15:56;73460.25;;;18.16;40.65
48555;BME280;34336;48.270;16.716;2022-08-19T08:18:24;73423.69;;;18.16;40.58
48555;BME280;34336;48.270;16.716;2022-08-19T08:20:56;73346.66;;;18.16;39.74
48555;BME280;34336;48.270;16.716;2022-08-19T08:23:24;73310.09;;;18.16;38.99
48555;BME280;34336;48.270;16.716;2022-08-19T08:25:55;73223.44;;;18.16;37.78
48555;BME280;34336;48.270;16.716;2022-08-19T08:28:25;73285.06;;;18.16;38.72
48555;BME280;34336;48.270;16.716;2022-08-19T08:30:57;73258.09;;;18.16;37.89
48555;BME280;34336;48.270;16.716;2022-08-19T08:33:27;73184.94;;;18.16;37.36
48555;BME280;34336;48.270;16.716;2022-08-19T08:36:01;73208.06;;;18.16;37.53
48555;BME280;34336;48.270;16.716;2022-08-19T08:38:37;73281.22;;;18.16;37.99
48555;BME280;34336;48.270;16.716;2022-08-19T08:43:49;73312.00;;;18.16;38.07
48555;BME280;34336;48.270;16.716;2022-08-19T08:49:42;73358.22;;;18.16;38.68
48555;BME280;34336;48.270;16.716;2022-08-19T08:52:32;73323.56;;;18.16;37.85
48555;BME280;34336;48.270;16.716;2022-08-19T08:55:10;73308.16;;;18.16;38.38
48555;BME280;34336;48.270;16.716;2022-08-19T08:58:09;73265.81;;;18.16;37.37
48555;BME280;34336;48.270;16.716;2022-08-19T09:00:48;73183.03;;;18.16;36.49
48555;BME280;34336;48.270;16.716;2022-08-19T09:03:36;73150.28;;;18.16;36.26
48555;BME280;34336;48.270;16.716;2022-08-19T09:09:18;73088.69;;;18.16;37.01
48555;BME280;34336;48.270;16.716;2022-08-19T09:15:43;73023.25;;;18.16;36.06
48555;BME280;34336;48.270;16.716;2022-08-19T09:18:14;72992.44;;;18.16;35.59
48555;BME280;34336;48.270;16.716;2022-08-19T09:20:48;72930.84;;;18.16;34.41
48555;BME280;34336;48.270;16.716;2022-08-19T09:23:17;72934.69;;;18.16;35.09
48555;BME280;34336;48.270;16.716;2022-08-19T09:25:53;72888.50;;;18.16;34.92
48555;BME280;34336;48.270;16.716;2022-08-19T09:28:20;72977.03;;;18.16;33.74
48555;BME280;34336;48.270;16.716;2022-08-19T09:30:53;73007.84;;;18.16;34.69
48555;BME280;34336;48.270;16.716;2022-08-19T09:33:20;72953.94;;;18.16;35.19
48555;BME280;34336;48.270;16.716;2022-08-19T09:35:47;72911.59;;;18.16;35.21
48555;BME280;34336;48.270;16.716;2022-08-19T09:38:20;72917.38;;;18.16;34.35
48555;BME280;34336;48.270;16.716;2022-08-19T09:41:04;72932.78;;;18.16;34.21
48555;BME280;34336;48.270;16.716;2022-08-19T09:43:45;72892.34;;;18.16;33.55
48555;BME280;34336;48.270;16.716;2022-08-19T09:46:13;72884.66;;;18.16;33.61
48555;BME280;34336;48.270;16.716;2022-08-19T09:48:44;72842.28;;;18.16;33.98
48555;BME280;34336;48.270;16.716;2022-08-19T09:51:18;72855.78;;;18.16;32.62
48555;BME280;34336;48.270;16.716;2022-08-19T09:53:49;72923.16;;;18.16;32.95
48555;BME280;34336;48.270;16.716;2022-08-19T09:56:23;73013.63;;;18.16;34.45
48555;BME280;34336;48.270;16.716;2022-08-19T09:58:50;72963.56;;;18.16;32.44
48555;BME280;34336;48.270;16.716;2022-08-19T10:01:24;73057.91;;;18.16;33.87
48555;BME280;34336;48.270;16.716;2022-08-19T10:03:53;73169.56;;;18.16;34.42
48555;BME280;34336;48.270;16.716;2022-08-19T10:06:24;73159.94;;;18.16;34.88
48555;BME280;34336;48.270;16.716;2022-08-19T10:09:12;73119.50;;;18.16;34.40
48555;BME280;34336;48.270;16.716;2022-08-19T10:11:41;73132.97;;;18.16;35.22
48555;BME280;34336;48.270;16.716;2022-08-19T10:14:19;73123.34;;;18.16;34.06
48555;BME280;34336;48.270;16.716;2022-08-19T10:16:49;73046.34;;;18.16;33.78
48555;BME280;34336;48.270;16.716;2022-08-19T10:19:19;72955.88;;;18.16;33.00
48555;BME280;34336;48.270;16.716;2022-08-19T10:21:52;72903.91;;;18.16;33.12
48555;BME280;34336;48.270;16.716;2022-08-19T10:24:21;72838.44;;;18.16;32.77
48555;BME280;34336;48.270;16.716;2022-08-19T10:26:50;72834.59;;;18.16;32.16
48555;BME280;34336;48.270;16.716;2022-08-19T10:29:24;72946.25;;;18.16;33.29
48555;BME280;34336;48.270;16.716;2022-08-19T10:32:00;73044.41;;;18.16;32.65
48555;BME280;34336;48.270;16.716;2022-08-19T10:34:29;73054.03;;;18.16;33.26
48555;BME280;34336;48.270;16.716;2022-08-19T10:36:57;73015.53;;;18.16;33.07
48555;BME280;34336;48.270;16.716;2022-08-19T10:39:28;73090.63;;;18.16;33.85
48555;BME280;34336;48.270;16.716;2022-08-19T10:41:57;73067.53;;;18.16;33.59
48555;BME280;34336;48.270;16.716;2022-08-19T10:44:24;73069.44;;;18.16;33.21
48555;BME280;34336;48.270;16.716;2022-08-19T10:46:58;73096.41;;;18.16;33.71
48555;BME280;34336;48.270;16.716;2022-08-19T10:49:33;73131.03;;;18.16;33.58
48555;BME280;34336;48.270;16.716;2022-08-19T10:52:21;73158.00;;;18.16;34.21
48555;BME280;34336;48.270;16.716;2022-08-19T10:55:05;73221.53;;;18.16;34.76
48555;BME280;34336;48.270;16.716;2022-08-19T10:57:55;73223.44;;;18.16;35.21
48555;BME280;34336;48.270;16.716;2022-08-19T11:00:28;73260.03;;;18.16;35.63
48555;BME280;34336;48.270;16.716;2022-08-19T11:02:58;73267.72;;;18.16;35.51
48555;BME280;34336;48.270;16.716;2022-08-19T11:05:25;73304.31;;;18.16;35.98
48555;BME280;34336;48.270;16.716;2022-08-19T11:07:52;73327.41;;;18.16;36.06
48555;BME280;34336;48.270;16.716;2022-08-19T11:10:19;73365.91;;;18.16;36.54
48555;BME280;34336;48.270;16.716;2022-08-19T11:12:48;73381.31;;;18.16;36.38
48555;BME280;34336;48.270;16.716;2022-08-19T11:15:17;73373.63;;;18.16;36.90
48555;BME280;34336;48.270;16.716;2022-08-19T11:17:44;73367.84;;;18.16;37.54
48555;BME280;34336;48.270;16.716;2022-08-19T11:20:12;73362.06;;;18.16;37.50
48555;BME280;34336;48.270;16.716;2022-08-19T11:22:40;73358.22;;;18.16;37.74
48555;BME280;34336;48.270;16.716;2022-08-19T11:25:09;73369.75;;;18.16;37.12
48555;BME280;34336;48.270;16.716;2022-08-19T11:27:40;73383.25;;;18.16;38.95
48555;BME280;34336;48.270;16.716;2022-08-19T11:30:13;73458.31;;;18.16;40.93
48555;BME280;34336;48.270;16.716;2022-08-19T11:32:41;73485.28;;;18.16;42.51
48555;BME280;34336;48.270;16.716;2022-08-19T11:35:14;73523.78;;;18.16;41.72
48555;BME280;34336;48.270;16.716;2022-08-19T11:37:40;73531.50;;;18.16;43.41
48555;BME280;34336;48.270;16.716;2022-08-19T11:40:08;73531.50;;;18.16;45.57
48555;BME280;34336;48.270;16.716;2022-08-19T11:42:35;73560.38;;;18.16;45.97
48555;BME280;34336;48.270;16.716;2022-08-19T11:45:21;73577.69;;;18.16;45.94
48555;BME280;34336;48.270;16.716;2022-08-19T11:47:48;73600.81;;;18.16;46.71
48555;BME280;34336;48.270;16.716;2022-08-19T11:50:15;73606.56;;;18.16;46.49
48555;BME280;34336;48.270;16.716;2022-08-19T11:52:43;73612.34;;;18.16;47.08
48555;BME280;34336;48.270;16.716;2022-08-19T11:55:12;73608.50;;;18.16;46.56
48555;BME280;34336;48.270;16.716;2022-08-19T11:57:40;73591.19;;;18.16;44.36
48555;BME280;34336;48.270;16.716;2022-08-19T12:00:10;73556.53;;;18.16;45.71
48555;BME280;34336;48.270;16.716;2022-08-19T12:02:39;73543.03;;;18.16;45.64
48555;BME280;34336;48.270;16.716;2022-08-19T12:05:07;73516.09;;;18.16;44.52
48555;BME280;34336;48.270;16.716;2022-08-19T12:07:38;73506.47;;;18.16;43.10
48555;BME280;34336;48.270;16.716;2022-08-19T12:10:07;73446.78;;;18.16;41.04
48555;BME280;34336;48.270;16.716;2022-08-19T12:12:34;73439.06;;;18.16;40.88
48555;BME280;34336;48.270;16.716;2022-08-19T12:15:02;73404.41;;;18.16;42.18
48555;BME280;34336;48.270;16.716;2022-08-19T12:17:30;73385.16;;;18.16;41.13
48555;BME280;34336;48.270;16.716;2022-08-19T12:19:58;73323.56;;;18.16;40.75
48555;BME280;34336;48.270;16.716;2022-08-19T12:22:25;73356.28;;;18.16;40.70
48555;BME280;34336;48.270;16.716;2022-08-19T12:24:52;73354.38;;;18.16;40.11
48555;BME280;34336;48.270;16.716;2022-08-19T12:27:20;73308.16;;;18.16;39.70
48555;BME280;34336;48.270;16.716;2022-08-19T12:30:03;73312.00;;;18.16;38.62
48555;BME280;34336;48.270;16.716;2022-08-19T12:32:36;73256.19;;;18.16;38.34
48555;BME280;34336;48.270;16.716;2022-08-19T12:35:09;73225.38;;;18.16;39.13
48555;BME280;34336;48.270;16.716;2022-08-19T12:37:38;73188.81;;;18.16;38.56
48555;BME280;34336;48.270;16.716;2022-08-19T12:40:06;73231.16;;;18.16;37.73
48555;BME280;34336;48.270;16.716;2022-08-19T12:42:35;73256.19;;;18.16;38.92
48555;BME280;34336;48.270;16.716;2022-08-19T12:45:10;73269.66;;;18.16;38.78
48555;BME280;34336;48.270;16.716;2022-08-19T12:47:38;73365.91;;;18.16;39.92
48555;BME280;34336;48.270;16.716;2022-08-19T12:50:08;73389.03;;;18.16;40.75
48555;BME280;34336;48.270;16.716;2022-08-19T12:52:36;73435.22;;;18.16;41.24
48555;BME280;34336;48.270;16.716;2022-08-19T12:55:05;73466.03;;;18.16;41.66
48555;BME280;34336;48.270;16.716;2022-08-19T12:57:33;73477.59;;;18.16;41.91
48555;BME280;34336;48.270;16.716;2022-08-19T13:00:08;73504.53;;;18.16;41.73
48555;BME280;34336;48.270;16.716;2022-08-19T13:02:43;73531.50;;;18.16;43.82
48555;BME280;34336;48.270;16.716;2022-08-19T13:05:12;73544.97;;;18.16;45.58
48555;BME280;34336;48.270;16.716;2022-08-19T13:07:40;73585.41;;;18.16;46.07
48555;BME280;34336;48.270;16.716;2022-08-19T13:10:09;73621.97;;;18.16;47.26
48555;BME280;34336;48.270;16.716;2022-08-19T13:12:38;73635.47;;;18.16;48.21
48555;BME280;34336;48.270;16.716;2022-08-19T13:15:05;73635.47;;;18.16;48.95
48555;BME280;34336;48.270;16.716;2022-08-19T13:17:38;73639.31;;;18.16;49.77
48555;BME280;34336;48.270;16.716;2022-08-19T13:20:08;73643.16;;;18.16;49.96
48555;BME280;34336;48.270;16.716;2022-08-19T13:22:35;73623.91;;;18.16;49.56
48555;BME280;34336;48.270;16.716;2022-08-19T13:25:04;73610.44;;;18.16;49.59
48555;BME280;34336;48.270;16.716;2022-08-19T13:27:31;73627.75;;;18.16;50.09